Time;durP1;ratioP1;P1;durP2;ratioP2;P2;SDS_P1;SDS_P2;PMS_P1;PMS_P2;Temp;Humidity;BMP_temperature;BMP_pressure;BME280_temperature;BME280_humidity;BME280_pressure;Samples;Min_cycle;Max_cycle;Signal;HPM_P1;HPM_P2
2022/09/29 00:01:36;;;;;;;37.60;8.00;;;;;;;6.71;100.00;96496.22;4986904;28;20118;-59
2022/09/29 00:04:01;;;;;;;45.83;9.65;;;;;;;6.11;100.00;96490.50;4984296;28;20030;-57
2022/09/29 00:06:27;;;;;;;37.50;9.10;;;;;;;6.14;100.00;96485.19;4987617;28;20636;-58
2022/09/29 00:08:52;;;;;;;41.08;9.00;;;;;;;6.20;100.00;96497.00;4988299;28;20377;-56
2022/09/29 00:11:18;;;;;;;40.65;9.30;;;;;;;6.20;100.00;96492.66;4985606;28;20042;-56
2022/09/29 00:13:45;;;;;;;38.53;9.15;;;;;;;6.04;100.00;96492.53;4989116;28;20076;-58
2022/09/29 00:16:11;;;;;;;40.38;9.10;;;;;;;6.27;100.00;96495.78;4984611;28;20062;-56
2022/09/29 00:18:37;;;;;;;46.08;8.95;;;;;;;6.34;100.00;96495.41;4985943;28;20035;-56
2022/09/29 00:21:07;;;;;;;35.40;8.70;;;;;;;6.24;100.00;96494.16;4986545;28;20104;-58
2022/09/29 00:23:34;;;;;;;40.88;8.68;;;;;;;6.13;100.00;96491.25;4987950;28;20113;-59
2022/09/29 00:26:02;;;;;;;48.03;8.80;;;;;;;6.36;100.00;96488.41;4987045;28;20069;-56
2022/09/29 00:28:28;;;;;;;48.22;8.25;;;;;;;6.26;100.00;96497.53;4985953;28;20022;-57
2022/09/29 00:30:54;;;;;;;38.55;8.35;;;;;;;6.40;100.00;96488.28;4985152;28;20037;-56
2022/09/29 00:33:19;;;;;;;37.03;7.75;;;;;;;6.11;100.00;96488.75;4988790;28;20022;-59
2022/09/29 00:35:55;;;;;;;41.10;8.00;;;;;;;6.44;100.00;96489.78;4985445;28;20328;-57
2022/09/29 00:38:20;;;;;;;39.63;8.38;;;;;;;6.44;100.00;96487.22;4985877;28;20125;-56
2022/09/29 00:40:45;;;;;;;43.92;8.85;;;;;;;6.24;100.00;96488.16;4987913;28;20145;-57
2022/09/29 00:43:20;;;;;;;33.58;8.30;;;;;;;6.22;100.00;96483.06;4986539;28;20655;-56
2022/09/29 00:45:47;;;;;;;49.60;9.55;;;;;;;6.14;100.00;96485.19;4985850;28;20419;-58
2022/09/29 00:48:18;;;;;;;36.67;8.77;;;;;;;5.95;100.00;96480.84;4985140;28;20038;-58
2022/09/29 00:50:52;;;;;;;43.25;9.13;;;;;;;6.30;100.00;96482.69;4986674;28;20042;-56
2022/09/29 00:53:20;;;;;;;38.22;7.57;;;;;;;6.44;100.00;96484.63;4987813;28;20133;-57
2022/09/29 00:55:53;;;;;;;48.83;9.00;;;;;;;6.69;100.00;96486.81;4986580;28;20092;-57
2022/09/29 00:58:55;;;;;;;36.10;8.10;;;;;;;6.35;100.00;96481.53;4978271;28;20034;-56
2022/09/29 01:01:22;;;;;;;39.97;8.10;;;;;;;6.60;100.00;96490.72;4985819;28;20107;-59
2022/09/29 01:03:52;;;;;;;34.10;7.78;;;;;;;6.60;100.00;96490.72;4987077;28;20026;-56
2022/09/29 01:06:49;;;;;;;38.80;8.23;;;;;;;6.61;100.00;96487.19;4985682;28;20042;-57
2022/09/29 01:09:22;;;;;;;40.08;8.02;;;;;;;6.45;100.00;96486.28;4986104;28;20122;-56
2022/09/29 01:11:51;;;;;;;33.13;8.35;;;;;;;6.68;100.00;96483.41;4986228;28;20046;-58
2022/09/29 01:14:18;;;;;;;33.65;7.85;;;;;;;6.50;100.00;96486.91;4986780;28;20033;-56
2022/09/29 01:16:44;;;;;;;41.58;8.13;;;;;;;6.88;100.00;96481.56;4985880;28;20066;-57
2022/09/29 01:19:21;;;;;;;40.92;8.25;;;;;;;6.65;100.00;96487.91;4987031;28;20030;-59
2022/09/29 01:22:07;;;;;;;39.85;8.02;;;;;;;6.86;100.00;96486.81;4990042;28;20080;-58
2022/09/29 01:25:10;;;;;;;33.72;7.10;;;;;;;6.61;100.00;96491.56;4989322;28;20679;-58
2022/09/29 01:28:17;;;;;;;36.28;7.53;;;;;;;6.50;100.00;96479.13;5009711;28;20049;-54
2022/09/29 01:30:54;;;;;;;35.17;7.43;;;;;;;6.75;100.00;96487.38;4973758;28;20120;-56
2022/09/29 01:33:42;;;;;;;41.90;8.40;;;;;;;6.79;100.00;96488.06;4988969;28;20398;-55
2022/09/29 01:36:32;;;;;;;33.78;6.95;;;;;;;6.65;100.00;96493.91;4988817;28;20216;-58
2022/09/29 01:39:16;;;;;;;34.10;6.72;;;;;;;6.91;100.00;96494.34;4988525;28;20072;-58
2022/09/29 01:41:55;;;;;;;32.95;6.93;;;;;;;6.72;100.00;96482.31;4989892;28;20050;-56
2022/09/29 01:44:24;;;;;;;38.38;7.40;;;;;;;6.63;100.00;96484.53;4990092;28;20034;-60
2022/09/29 01:46:55;;;;;;;40.30;7.40;;;;;;;6.92;100.00;96486.50;4987982;28;20645;-56
2022/09/29 01:49:25;;;;;;;37.22;7.20;;;;;;;6.72;100.00;96490.09;4989097;28;20022;-55
2022/09/29 01:52:00;;;;;;;35.45;7.22;;;;;;;6.77;100.00;96491.66;4972114;28;20038;-56
2022/09/29 01:54:44;;;;;;;38.35;7.72;;;;;;;6.68;100.00;96498.13;4989846;28;20026;-57
2022/09/29 01:57:27;;;;;;;35.58;7.28;;;;;;;6.80;100.00;96496.66;4987873;28;20714;-56
2022/09/29 02:00:08;;;;;;;35.00;7.00;;;;;;;6.56;100.00;96481.41;4990653;28;20052;-56
2022/09/29 02:02:42;;;;;;;35.90;7.10;;;;;;;6.67;100.00;96481.75;4989066;28;20071;-59
2022/09/29 02:05:31;;;;;;;25.33;6.40;;;;;;;6.61;100.00;96482.03;4991020;28;20509;-56
2022/09/29 02:08:06;;;;;;;31.85;7.13;;;;;;;6.97;100.00;96483.69;4987412;28;20068;-56
2022/09/29 02:10:39;;;;;;;35.22;7.03;;;;;;;6.78;100.00;96493.31;4987082;28;20038;-60
2022/09/29 02:13:09;;;;;;;37.28;6.95;;;;;;;6.78;100.00;96491.53;4990547;28;20041;-55
2022/09/29 02:15:41;;;;;;;47.67;7.93;;;;;;;6.49;100.00;96498.19;4988134;28;20034;-57
2022/09/29 02:18:16;;;;;;;29.35;6.75;;;;;;;6.57;100.00;96498.63;4988551;28;20029;-56
2022/09/29 02:20:41;;;;;;;34.55;7.30;;;;;;;6.84;100.00;96493.84;4988111;28;20030;-58
2022/09/29 02:23:07;;;;;;;30.38;6.72;;;;;;;6.66;100.00;96495.59;4991420;28;20030;-56
2022/09/29 02:25:37;;;;;;;38.22;7.45;;;;;;;6.71;100.00;96492.78;4989031;28;20092;-58
2022/09/29 02:28:03;;;;;;;38.53;7.60;;;;;;;6.71;100.00;96493.63;4988022;28;20026;-56
2022/09/29 02:30:29;;;;;;;39.05;7.13;;;;;;;6.65;100.00;96499.09;4987971;28;20930;-58
2022/09/29 02:32:54;;;;;;;36.63;7.65;;;;;;;6.58;100.00;96497.75;4987166;28;20022;-60
2022/09/29 02:35:20;;;;;;;39.20;7.50;;;;;;;6.58;100.00;96502.91;4988142;28;20137;-57
2022/09/29 02:37:53;;;;;;;31.98;6.80;;;;;;;6.65;100.00;96499.09;4989778;28;20060;-56
2022/09/29 02:40:31;;;;;;;31.13;6.20;;;;;;;6.71;100.00;96495.38;4988156;28;20883;-57
2022/09/29 02:43:22;;;;;;;33.75;6.82;;;;;;;7.03;100.00;96498.09;4989924;28;20406;-58
2022/09/29 02:46:06;;;;;;;39.13;7.57;;;;;;;6.84;100.00;96493.84;4973147;28;20569;-57
2022/09/29 02:48:34;;;;;;;36.13;7.47;;;;;;;6.94;100.00;96487.28;4989418;28;20235;-56
2022/09/29 02:51:11;;;;;;;33.90;7.15;;;;;;;6.63;100.00;96480.19;4988242;28;20046;-56
2022/09/29 02:54:18;;;;;;;38.13;7.38;;;;;;;6.39;100.00;96479.66;4989462;28;20034;-58
2022/09/29 02:56:57;;;;;;;26.60;6.00;;;;;;;6.44;100.00;96485.44;4987439;28;20049;-57
2022/09/29 02:59:34;;;;;;;45.58;8.05;;;;;;;6.50;100.00;96479.94;4988203;28;20037;-56
2022/09/29 03:01:59;;;;;;;26.08;5.68;;;;;;;6.70;100.00;96481.56;4990577;28;20151;-58
2022/09/29 03:04:26;;;;;;;37.88;7.75;;;;;;;6.42;100.00;96489.03;4987108;28;20781;-56
2022/09/29 03:06:52;;;;;;;32.72;6.82;;;;;;;6.39;100.00;96484.81;4987547;28;20041;-56
2022/09/29 03:09:18;;;;;;;39.38;6.82;;;;;;;7.10;100.00;96486.50;4987086;28;20057;-58
2022/09/29 03:11:44;;;;;;;30.65;6.70;;;;;;;6.74;100.00;96493.44;4986966;28;20125;-56
2022/09/29 03:14:09;;;;;;;39.60;7.68;;;;;;;6.70;100.00;96491.94;4988651;28;20026;-56
2022/09/29 03:16:35;;;;;;;41.72;7.97;;;;;;;6.49;100.00;96482.66;4987707;28;20102;-58
2022/09/29 03:19:01;;;;;;;31.98;7.10;;;;;;;6.60;100.00;96487.28;4987569;28;20109;-57
2022/09/29 03:21:26;;;;;;;39.65;6.70;;;;;;;6.49;100.00;96487.81;4986583;28;20818;-56
2022/09/29 03:23:52;;;;;;;29.20;6.90;;;;;;;6.66;100.00;96485.22;4988389;28;20037;-58
2022/09/29 03:26:17;;;;;;;38.58;7.40;;;;;;;6.48;100.00;96486.97;4987062;28;20072;-57
2022/09/29 03:28:42;;;;;;;38.63;7.68;;;;;;;6.35;100.00;96481.53;4987903;28;20121;-56
2022/09/29 03:31:09;;;;;;;30.90;6.93;;;;;;;6.66;100.00;96482.63;4986879;28;20045;-56
2022/09/29 03:33:37;;;;;;;26.60;5.97;;;;;;;6.13;100.00;96486.09;4988464;28;20774;-56
2022/09/29 03:36:04;;;;;;;41.80;8.05;;;;;;;6.25;100.00;96484.66;4986561;28;20265;-56
2022/09/29 03:38:30;;;;;;;32.78;7.63;;;;;;;6.06;100.00;96484.69;4986446;28;20039;-55
2022/09/29 03:40:55;;;;;;;37.25;6.68;;;;;;;6.51;100.00;96486.81;4987151;28;20517;-55
2022/09/29 03:43:20;;;;;;;30.48;6.57;;;;;;;6.68;100.00;96486.00;4987114;28;20149;-56
2022/09/29 03:45:50;;;;;;;43.05;7.05;;;;;;;6.67;100.00;96496.41;4987902;28;20041;-58
2022/09/29 03:48:16;;;;;;;38.58;7.55;;;;;;;6.31;100.00;96495.56;4985560;28;20018;-56
2022/09/29 03:50:43;;;;;;;38.00;7.75;;;;;;;6.32;100.00;96492.06;4986433;28;20101;-59
2022/09/29 03:53:09;;;;;;;42.15;7.65;;;;;;;6.14;100.00;96492.94;4988044;28;20065;-56
2022/09/29 03:55:34;;;;;;;39.58;8.30;;;;;;;6.12;100.00;96499.91;4986617;28;20117;-58
2022/09/29 03:57:59;;;;;;;45.60;7.80;;;;;;;5.77;100.00;96499.78;4986103;28;20120;-56
2022/09/29 04:00:25;;;;;;;41.22;7.70;;;;;;;5.61;100.00;96502.25;4986162;28;20688;-56
2022/09/29 04:02:53;;;;;;;35.83;7.43;;;;;;;6.13;100.00;96506.78;4987179;28;20373;-56
2022/09/29 04:05:18;;;;;;;46.65;8.30;;;;;;;5.43;100.00;96501.31;4988202;28;20365;-56
2022/09/29 04:07:44;;;;;;;36.65;6.90;;;;;;;5.90;100.00;96500.06;4986441;28;20030;-57
2022/09/29 04:10:09;;;;;;;38.25;7.00;;;;;;;6.08;100.00;96496.63;4986968;28;20049;-59
2022/09/29 04:12:34;;;;;;;44.88;8.15;;;;;;;6.11;100.00;96503.44;4988499;28;20022;-57
2022/09/29 04:15:00;;;;;;;41.08;7.57;;;;;;;5.68;100.00;96500.19;4987515;28;20030;-57
2022/09/29 04:17:25;;;;;;;35.47;6.63;;;;;;;6.20;100.00;96491.81;4985562;28;20415;-59
2022/09/29 04:19:51;;;;;;;38.35;7.93;;;;;;;5.58;100.00;96492.84;4986015;28;20022;-58
2022/09/29 04:22:19;;;;;;;39.33;7.43;;;;;;;5.90;100.00;96495.75;4985411;28;20034;-57
2022/09/29 04:24:47;;;;;;;33.35;6.10;;;;;;;6.14;100.00;96492.94;4971334;28;20653;-56
2022/09/29 04:27:13;;;;;;;30.80;6.47;;;;;;;6.15;100.00;96489.44;4985445;28;20076;-58
2022/09/29 04:29:39;;;;;;;42.15;7.43;;;;;;;6.06;100.00;96487.28;4986942;28;20041;-56
2022/09/29 04:32:05;;;;;;;34.90;7.53;;;;;;;6.10;100.00;96497.44;4987276;28;20046;-56
2022/09/29 04:34:31;;;;;;;37.20;8.27;;;;;;;5.67;100.00;96494.19;4985436;28;20031;-55
2022/09/29 04:36:56;;;;;;;39.63;8.25;;;;;;;5.55;100.00;96497.31;4986445;28;20045;-55
2022/09/29 04:39:21;;;;;;;33.78;7.78;;;;;;;5.39;100.00;96499.78;4988707;28;20021;-58
2022/09/29 04:41:47;;;;;;;35.55;7.28;;;;;;;5.50;100.00;96505.31;4985135;28;20049;-58
2022/09/29 04:44:12;;;;;;;38.22;6.75;;;;;;;6.01;100.00;96512.53;4986813;28;20463;-57
2022/09/29 04:46:38;;;;;;;42.33;8.38;;;;;;;5.51;100.00;96513.91;4985915;28;20049;-56
2022/09/29 04:49:03;;;;;;;42.45;7.97;;;;;;;6.09;100.00;96505.25;4986982;28;20053;-57
2022/09/29 04:51:28;;;;;;;33.95;7.15;;;;;;;5.93;100.00;96507.69;4985811;28;20042;-57
2022/09/29 04:53:54;;;;;;;37.63;7.00;;;;;;;6.63;100.00;96508.69;4986065;28;20454;-57
2022/09/29 04:56:19;;;;;;;37.55;8.25;;;;;;;5.91;100.00;96512.94;4987735;28;20041;-58
2022/09/29 04:58:44;;;;;;;36.22;7.80;;;;;;;6.03;100.00;96515.88;4985450;28;20052;-56
2022/09/29 05:01:13;;;;;;;36.97;7.28;;;;;;;6.65;100.00;96509.44;4987645;28;20618;-56
2022/09/29 05:03:40;;;;;;;34.40;7.55;;;;;;;6.28;100.00;96511.22;4986147;28;20030;-56
2022/09/29 05:06:08;;;;;;;45.35;8.55;;;;;;;6.46;100.00;96503.50;4984336;28;20042;-56
2022/09/29 05:08:33;;;;;;;40.40;7.97;;;;;;;6.24;100.00;96509.72;4986963;28;20084;-58
2022/09/29 05:11:03;;;;;;;47.83;8.70;;;;;;;6.63;100.00;96506.09;4986186;28;20057;-56
2022/09/29 05:13:28;;;;;;;34.72;7.22;;;;;;;6.95;100.00;96506.28;4985290;28;20131;-58
2022/09/29 05:15:55;;;;;;;37.13;7.88;;;;;;;6.42;100.00;96497.63;4984520;28;20460;-58
2022/09/29 05:18:20;;;;;;;35.42;8.05;;;;;;;6.32;100.00;96497.25;4986987;28;20018;-56
2022/09/29 05:20:46;;;;;;;36.72;8.40;;;;;;;6.84;100.00;96503.38;4985470;28;20045;-56
2022/09/29 05:23:11;;;;;;;41.35;8.15;;;;;;;6.81;100.00;96508.72;4987473;28;20030;-57
2022/09/29 05:25:37;;;;;;;42.97;8.05;;;;;;;6.83;100.00;96506.88;4986126;28;20065;-55
2022/09/29 05:28:02;;;;;;;46.53;9.52;;;;;;;6.49;100.00;96504.19;4987360;28;20030;-56
2022/09/29 05:30:28;;;;;;;42.53;8.30;;;;;;;6.35;100.00;96499.66;4986215;28;20084;-54
2022/09/29 05:32:53;;;;;;;40.38;7.85;;;;;;;6.87;100.00;96504.03;4985682;28;20212;-57
2022/09/29 05:35:19;;;;;;;32.28;7.30;;;;;;;6.69;100.00;96503.22;4984973;28;20065;-55
2022/09/29 05:37:45;;;;;;;35.03;7.68;;;;;;;6.77;100.00;96491.66;4985837;28;20111;-55
2022/09/29 05:40:11;;;;;;;35.40;7.18;;;;;;;7.16;100.00;96496.56;4984924;28;20034;-56
2022/09/29 05:42:36;;;;;;;37.45;9.68;;;;;;;6.97;100.00;96501.00;4985980;28;20040;-56
2022/09/29 05:45:02;;;;;;;46.22;8.70;;;;;;;6.46;100.00;96490.56;4984962;28;20026;-56
2022/09/29 05:47:27;;;;;;;40.75;8.80;;;;;;;6.53;100.00;96500.53;4983037;28;20031;-56
2022/09/29 05:49:52;;;;;;;40.42;8.95;;;;;;;6.64;100.00;96502.59;4986077;28;20266;-57
2022/09/29 05:52:18;;;;;;;39.78;9.20;;;;;;;5.97;100.00;96502.34;4983390;28;20038;-55
2022/09/29 05:54:43;;;;;;;34.75;8.27;;;;;;;6.22;100.00;96500.34;4985627;28;20034;-57
2022/09/29 05:57:08;;;;;;;36.70;8.48;;;;;;;6.86;100.00;96501.56;4986568;28;20052;-55
2022/09/29 05:59:34;;;;;;;43.90;8.98;;;;;;;7.36;100.00;96511.09;4986493;28;20038;-56
2022/09/29 06:01:59;;;;;;;42.58;8.07;;;;;;;7.04;100.00;96505.81;4984344;28;20051;-57
2022/09/29 06:04:24;;;;;;;35.45;7.97;;;;;;;6.92;100.00;96511.59;4984213;28;20091;-55
2022/09/29 06:06:50;;;;;;;35.40;8.20;;;;;;;6.74;100.00;96509.00;4986656;28;20053;-57
2022/09/29 06:09:15;;;;;;;31.23;7.65;;;;;;;7.09;100.00;96508.97;4989764;28;20543;-55
2022/09/29 06:11:41;;;;;;;43.80;7.90;;;;;;;6.80;100.00;96517.38;4988700;28;20499;-55
2022/09/29 06:14:06;;;;;;;38.63;8.05;;;;;;;7.56;100.00;96510.03;4991259;28;20104;-58
2022/09/29 06:16:32;;;;;;;37.10;7.63;;;;;;;7.96;100.00;96514.84;4987393;28;20034;-59
2022/09/29 06:19:02;;;;;;;40.75;8.73;;;;;;;7.69;100.00;96513.66;4988337;28;20022;-57
2022/09/29 06:21:29;;;;;;;35.95;7.95;;;;;;;8.05;100.00;96519.53;4987694;28;20129;-55
2022/09/29 06:23:55;;;;;;;40.47;8.43;;;;;;;7.63;100.00;96513.16;4987023;28;20022;-56
2022/09/29 06:26:21;;;;;;;37.85;8.45;;;;;;;8.75;100.00;96521.75;4989468;28;20077;-56
2022/09/29 06:28:47;;;;;;;40.15;7.95;;;;;;;8.46;100.00;96525.09;4987341;28;20037;-55
2022/09/29 06:31:15;;;;;;;29.70;7.82;;;;;;;9.36;100.00;96527.75;4987797;28;20034;-56
2022/09/29 06:33:41;;;;;;;40.33;7.55;;;;;;;8.79;100.00;96525.88;4987678;28;20049;-55
2022/09/29 06:39:01;;;;;;;39.08;8.50;;;;;;;8.47;100.00;96524.19;4988692;28;20585;-56
2022/09/29 06:41:28;;;;;;;37.28;7.93;;;;;;;9.19;100.00;96533.94;4988235;28;20137;-55
2022/09/29 06:43:53;;;;;;;30.30;7.53;;;;;;;9.51;100.00;96523.41;4988598;28;20075;-56
2022/09/29 06:46:20;;;;;;;32.47;8.13;;;;;;;10.47;100.00;96540.03;4989585;28;20037;-55
2022/09/29 06:48:45;;;;;;;30.88;7.35;;;;;;;11.11;100.00;96528.94;4986727;28;20550;-56
2022/09/29 06:51:11;;;;;;;42.47;8.35;;;;;;;9.69;100.00;96517.06;4986905;28;20030;-55
2022/09/29 06:53:36;;;;;;;29.70;8.02;;;;;;;10.31;100.00;96524.53;4988932;28;20030;-56
2022/09/29 06:56:02;;;;;;;34.47;7.68;;;;;;;10.30;100.00;96522.00;4988091;28;20462;-55
2022/09/29 06:58:28;;;;;;;31.52;7.80;;;;;;;11.10;100.00;96524.66;4987560;28;20038;-55
2022/09/29 07:00:54;;;;;;;31.45;7.35;;;;;;;10.18;100.00;96514.03;4989844;28;20117;-56
2022/09/29 07:03:20;;;;;;;28.67;7.75;;;;;;;10.29;100.00;96515.09;4989197;28;20472;-56
2022/09/29 07:05:45;;;;;;;34.60;7.65;;;;;;;11.41;100.00;96517.38;4988014;28;20038;-56
2022/09/29 07:08:10;;;;;;;23.67;7.18;;;;;;;10.61;100.00;96506.09;4988402;28;20021;-56
2022/09/29 07:10:36;;;;;;;33.97;7.65;;;;;;;10.23;100.00;96500.69;4986115;28;20069;-56
2022/09/29 07:13:01;;;;;;;31.17;7.40;;;;;;;10.00;100.00;96509.97;4990580;28;20026;-57
2022/09/29 07:15:32;;;;;;;28.25;7.70;;;;;;;10.95;100.00;96505.63;4989008;28;20436;-55
2022/09/29 07:17:59;;;;;;;29.60;7.38;;;;;;;11.17;100.00;96502.44;4989584;28;20041;-56
2022/09/29 07:20:26;;;;;;;26.08;6.55;;;;;;;10.69;100.00;96507.34;4988484;28;20070;-56
2022/09/29 07:22:51;;;;;;;31.15;7.45;;;;;;;10.76;100.00;96513.84;4990025;28;20041;-56
2022/09/29 07:25:17;;;;;;;24.08;7.45;;;;;;;10.45;100.00;96510.63;4986712;28;20021;-54
2022/09/29 07:27:43;;;;;;;38.90;8.40;;;;;;;10.84;100.00;96516.78;4988926;28;20040;-55
2022/09/29 07:30:09;;;;;;;28.25;7.30;;;;;;;11.13;100.00;96507.03;4987315;28;20022;-55
2022/09/29 07:32:35;;;;;;;28.40;7.07;;;;;;;11.41;100.00;96512.97;4988790;28;20018;-55
2022/09/29 07:35:00;;;;;;;31.88;7.82;;;;;;;11.18;100.00;96522.38;4987500;28;20718;-56
2022/09/29 07:37:26;;;;;;;30.40;7.35;;;;;;;12.01;100.00;96521.13;4985790;28;20118;-57
2022/09/29 07:39:53;;;;;;;35.60;8.10;;;;;;;11.34;100.00;96523.03;4986294;28;20034;-57
2022/09/29 07:42:20;;;;;;;28.27;7.55;;;;;;;11.31;100.00;96525.00;4987491;28;20119;-58
2022/09/29 07:44:46;;;;;;;28.48;7.35;;;;;;;12.07;100.00;96524.13;4987428;28;20034;-56
2022/09/29 07:47:12;;;;;;;35.05;8.07;;;;;;;11.32;100.00;96521.44;4985920;28;20037;-58
2022/09/29 07:49:38;;;;;;;29.38;7.43;;;;;;;12.58;100.00;96523.13;4989588;28;20018;-57
2022/09/29 07:52:03;;;;;;;31.42;7.30;;;;;;;11.63;100.00;96529.78;4985831;28;20045;-57
2022/09/29 07:54:29;;;;;;;27.70;7.32;;;;;;;12.14;100.00;96525.34;4987755;28;20037;-58
2022/09/29 07:56:55;;;;;;;27.55;7.32;;;;;;;12.36;100.00;96528.22;4987069;28;20065;-58
2022/09/29 07:59:21;;;;;;;34.08;8.10;;;;;;;12.38;100.00;96526.34;4986163;28;20542;-58
2022/09/29 08:01:46;;;;;;;23.13;7.00;;;;;;;12.10;100.00;96534.34;4987294;28;20100;-58
2022/09/29 08:04:11;;;;;;;32.63;7.85;;;;;;;12.01;100.00;96532.41;4986842;28;20112;-56
2022/09/29 08:06:38;;;;;;;27.35;7.75;;;;;;;13.50;100.00;96528.56;4986301;28;20318;-56
2022/09/29 08:09:04;;;;;;;24.80;7.57;;;;;;;12.33;100.00;96519.66;4986439;28;20030;-55
2022/09/29 08:11:30;;;;;;;27.55;8.15;;;;;;;13.04;100.00;96530.19;4988745;28;20403;-55
2022/09/29 08:13:55;;;;;;;26.60;7.38;;;;;;;12.28;100.00;96527.00;4984825;28;20444;-56
2022/09/29 08:16:21;;;;;;;25.98;7.38;;;;;;;13.47;100.00;96532.25;4986206;28;20048;-55
2022/09/29 08:18:46;;;;;;;28.23;7.50;;;;;;;12.88;100.00;96534.91;4987525;28;20458;-55
2022/09/29 08:21:14;;;;;;;28.70;7.28;;;;;;;14.32;100.00;96520.44;4988005;28;20665;-55
2022/09/29 08:23:41;;;;;;;30.65;7.38;;;;;;;14.71;100.00;96523.44;4987454;28;20557;-56
2022/09/29 08:26:09;;;;;;;28.67;7.07;;;;;;;15.99;100.00;96518.91;4986149;28;20034;-58
2022/09/29 08:28:36;;;;;;;30.00;7.13;;;;;;;18.36;100.00;96533.47;4985513;28;20578;-56
2022/09/29 08:31:03;;;;;;;23.20;6.50;;;;;;;19.33;100.00;96529.28;4986549;28;20096;-56
2022/09/29 08:33:29;;;;;;;23.65;6.20;;;;;;;18.67;100.00;96526.03;4986336;28;20018;-55
2022/09/29 08:35:58;;;;;;;24.55;6.30;;;;;;;19.23;100.00;96517.97;4987052;28;20121;-56
2022/09/29 08:38:25;;;;;;;21.85;6.00;;;;;;;18.49;100.00;96525.19;4988071;28;20455;-56
2022/09/29 08:40:51;;;;;;;20.10;6.30;;;;;;;19.62;100.00;96521.06;4987513;28;20038;-56
2022/09/29 08:43:21;;;;;;;21.38;5.88;;;;;;;19.60;100.00;96532.78;4987125;28;20030;-59
2022/09/29 08:45:55;;;;;;;26.65;6.85;;;;;;;19.82;97.60;96539.41;4985693;28;20041;-56
2022/09/29 08:48:24;;;;;;;16.45;5.50;;;;;;;18.99;100.00;96537.94;4989240;28;20022;-57
2022/09/29 08:51:03;;;;;;;19.95;5.75;;;;;;;17.84;100.00;96541.00;4986704;28;20129;-57
2022/09/29 08:53:32;;;;;;;21.75;6.13;;;;;;;17.12;100.00;96530.03;4986999;28;20121;-56
2022/09/29 08:56:03;;;;;;;24.13;6.50;;;;;;;16.17;100.00;96529.63;4984920;28;20705;-57
2022/09/29 08:58:30;;;;;;;18.50;5.88;;;;;;;16.43;100.00;96528.28;4986862;28;20034;-57
2022/09/29 09:01:10;;;;;;;18.98;5.25;;;;;;;21.16;100.00;96544.81;4987214;28;20323;-56
2022/09/29 09:03:38;;;;;;;17.55;5.40;;;;;;;20.05;100.00;96534.38;4986099;28;20110;-58
2022/09/29 09:06:10;;;;;;;21.88;5.70;;;;;;;19.69;100.00;96539.78;4985305;28;20583;-56
2022/09/29 09:08:55;;;;;;;20.00;5.63;;;;;;;19.61;100.00;96537.06;4985438;28;20033;-57
2022/09/29 09:11:39;;;;;;;15.90;5.38;;;;;;;18.18;100.00;96532.56;4984287;28;20069;-58
2022/09/29 09:14:35;;;;;;;21.23;5.88;;;;;;;19.83;100.00;96535.75;4986654;28;20036;-56
2022/09/29 09:17:22;;;;;;;19.13;6.30;;;;;;;19.98;100.00;96536.03;4984993;28;20038;-56
2022/09/29 09:19:58;;;;;;;17.55;5.60;;;;;;;19.29;100.00;96538.50;4986919;28;20061;-58
2022/09/29 09:22:56;;;;;;;19.85;5.78;;;;;;;20.33;100.00;96540.31;4983827;28;20042;-59
2022/09/29 09:25:29;;;;;;;30.98;6.45;;;;;;;21.40;95.19;96539.69;4972977;28;20046;-57
2022/09/29 09:28:07;;;;;;;24.33;6.47;;;;;;;20.06;100.00;96529.94;4985672;28;20030;-57
2022/09/29 09:31:00;;;;;;;18.35;5.57;;;;;;;19.94;100.00;96532.00;4984471;28;20611;-58
2022/09/29 09:33:31;;;;;;;24.30;6.68;;;;;;;18.77;100.00;96533.88;4986197;28;20029;-56
2022/09/29 09:36:17;;;;;;;20.92;5.82;;;;;;;18.77;100.00;96533.06;4984446;28;20049;-56
2022/09/29 09:39:00;;;;;;;22.48;6.32;;;;;;;16.74;100.00;96536.91;4985162;28;20723;-59
2022/09/29 09:41:27;;;;;;;20.15;5.65;;;;;;;18.55;100.00;96540.44;4987384;28;20176;-56
2022/09/29 09:44:01;;;;;;;18.90;5.80;;;;;;;18.11;100.00;96537.59;4991493;28;20026;-55
2022/09/29 09:46:59;;;;;;;18.98;5.60;;;;;;;19.30;100.00;96537.53;4990387;28;20583;-55
2022/09/29 09:49:32;;;;;;;17.63;5.35;;;;;;;19.78;100.00;96538.06;4974329;28;20293;-55
2022/09/29 09:52:16;;;;;;;19.42;5.32;;;;;;;19.53;100.00;96534.38;4988930;28;20609;-56
2022/09/29 09:54:46;;;;;;;20.90;5.43;;;;;;;18.87;100.00;96532.03;4989642;28;20054;-57
2022/09/29 09:57:51;;;;;;;17.85;4.90;;;;;;;19.86;92.83;96531.97;4987866;28;20069;-56
2022/09/29 10:00:29;;;;;;;21.63;4.68;;;;;;;17.87;95.40;96533.66;4988286;28;20030;-55
2022/09/29 10:02:57;;;;;;;29.92;5.90;;;;;;;17.75;100.00;96526.88;4991529;28;20236;-58
2022/09/29 10:05:31;;;;;;;22.45;4.97;;;;;;;18.41;100.00;96533.81;4990483;28;20738;-56
2022/09/29 10:07:57;;;;;;;24.40;4.75;;;;;;;18.48;100.00;96532.25;4988700;28;20472;-57
2022/09/29 10:10:27;;;;;;;21.30;4.75;;;;;;;18.78;97.27;96534.72;4989679;28;20047;-57
2022/09/29 10:12:55;;;;;;;27.67;5.45;;;;;;;17.98;100.00;96526.56;4988256;28;20483;-55
2022/09/29 10:15:26;;;;;;;24.50;4.75;;;;;;;16.60;100.00;96529.41;4988700;28;20567;-56
2022/09/29 10:18:11;;;;;;;24.23;4.57;;;;;;;17.33;100.00;96532.50;4988374;28;20484;-55
2022/09/29 10:20:37;;;;;;;27.48;5.15;;;;;;;17.86;100.00;96533.81;4990242;28;20554;-56
2022/09/29 10:23:37;;;;;;;29.60;5.35;;;;;;;18.09;100.00;96531.66;4989696;28;20037;-56
2022/09/29 10:26:14;;;;;;;27.52;5.03;;;;;;;17.70;100.00;96529.94;4965999;28;20053;-55
2022/09/29 10:28:53;;;;;;;28.38;5.20;;;;;;;17.59;100.00;96537.16;4987240;28;20030;-55
2022/09/29 10:31:26;;;;;;;25.35;4.65;;;;;;;18.49;94.32;96535.75;4988694;28;20097;-57
2022/09/29 10:33:55;;;;;;;29.35;5.07;;;;;;;17.72;97.51;96532.44;4988485;28;20032;-56
2022/09/29 10:36:21;;;;;;;25.90;4.72;;;;;;;17.30;100.00;96530.16;4986768;28;20046;-58
2022/09/29 10:38:50;;;;;;;27.40;4.47;;;;;;;18.13;97.20;96522.44;4988522;28;20057;-58
2022/09/29 10:41:18;;;;;;;24.98;4.32;;;;;;;16.43;100.00;96518.63;4989084;28;20034;-55
2022/09/29 10:43:45;;;;;;;34.47;5.10;;;;;;;16.22;100.00;96521.31;4988000;28;20061;-55
2022/09/29 10:46:36;;;;;;;18.63;3.90;;;;;;;16.76;100.00;96527.94;4986848;28;20042;-56
2022/09/29 10:49:20;;;;;;;19.60;3.97;;;;;;;16.57;100.00;96531.34;4987919;28;20081;-56
2022/09/29 10:52:23;;;;;;;23.88;4.43;;;;;;;16.32;100.00;96537.13;4986499;28;20548;-55
2022/09/29 10:54:58;;;;;;;25.27;4.53;;;;;;;15.32;100.00;96532.47;4987594;28;20081;-55
2022/09/29 10:57:27;;;;;;;31.27;5.35;;;;;;;15.96;100.00;96534.94;4986064;28;20540;-56
2022/09/29 10:59:54;;;;;;;28.25;4.78;;;;;;;15.56;100.00;96534.84;4988765;28;20065;-55
2022/09/29 11:02:24;;;;;;;25.50;4.68;;;;;;;15.93;100.00;96537.81;4985480;28;20034;-56
2022/09/29 11:04:53;;;;;;;25.85;4.72;;;;;;;15.52;100.00;96539.53;4987077;28;20108;-55
2022/09/29 11:07:18;;;;;;;27.58;6.18;;;;;;;15.18;100.00;96537.09;4987086;28;20133;-55
2022/09/29 11:09:44;;;;;;;31.65;5.95;;;;;;;15.17;100.00;96540.69;4990719;28;20189;-57
2022/09/29 11:12:33;;;;;;;30.33;6.38;;;;;;;15.08;100.00;96554.56;4988056;28;20116;-59
2022/09/29 11:15:00;;;;;;;28.88;6.07;;;;;;;14.92;100.00;96551.53;4988981;28;20140;-56
2022/09/29 11:17:28;;;;;;;43.38;6.55;;;;;;;13.96;100.00;96568.72;4987032;28;20038;-56
2022/09/29 11:19:57;;;;;;;40.45;8.75;;;;;;;13.45;100.00;96580.44;4989716;28;20026;-58
2022/09/29 11:22:25;;;;;;;31.40;8.43;;;;;;;12.92;100.00;96586.03;4985694;28;20066;-57
2022/09/29 11:25:17;;;;;;;34.78;9.38;;;;;;;13.17;100.00;96592.94;4988837;28;20050;-55
2022/09/29 11:27:52;;;;;;;33.03;8.20;;;;;;;13.21;100.00;96597.00;5003089;28;20110;-56
2022/09/29 11:30:23;;;;;;;32.75;8.40;;;;;;;13.46;100.00;96608.31;5007732;28;20034;-58
2022/09/29 11:33:11;;;;;;;33.40;6.32;;;;;;;13.24;100.00;96588.94;5007351;28;20150;-55
2022/09/29 11:36:01;;;;;;;40.25;6.15;;;;;;;13.79;100.00;96588.38;5009002;28;20091;-56
2022/09/29 11:38:35;;;;;;;33.38;5.68;;;;;;;13.26;100.00;96594.88;5005819;28;20034;-56
2022/09/29 11:41:18;;;;;;;34.00;6.07;;;;;;;13.74;100.00;96598.38;5006887;28;20049;-56